Terminal Aerodrome Forecast
Issued by NWS Corpus Christi, TX

Home | Current Version | Previous Version | Text Only | Print | Product List | Glossary On
Versions: 1 2 3 4 5 6 7 8 9 10 11 12 13 14 15 16 17
000
FTUS44 KCRP 200524
TAFVCT
TAF
KVCT 200524Z 2006/2106 15006KT P6SM FEW025
      TEMPO 2008/2012 4SM BR BKN015
     FM201500 16012KT P6SM SCT025
     FM201800 17012G18KT P6SM SCT035
     FM210000 14008KT P6SM SCT035=

USA.gov is the U.S. government's official web portal to all federal, state and local government web resources and services.